sensor_id;sensor_type;location;lat;lon;timestamp;P1;durP1;ratioP1;P2;durP2;ratioP2
1753;SDS011;58380;48.312;9.246;2022-07-18T06:15:56;8.57;;;5.00;;
1753;SDS011;58380;48.312;9.246;2022-07-18T06:18:25;10.07;;;3.50;;
1753;SDS011;58380;48.312;9.246;2022-07-18T06:20:53;5.32;;;2.83;;
1753;SDS011;58380;48.312;9.246;2022-07-18T06:23:22;4.43;;;2.67;;
1753;SDS011;58380;48.312;9.246;2022-07-18T06:25:50;6.50;;;2.75;;
1753;SDS011;58380;48.312;9.246;2022-07-18T06:28:19;3.45;;;2.03;;
1753;SDS011;58380;48.312;9.246;2022-07-18T06:30:47;3.28;;;1.90;;
1753;SDS011;58380;48.312;9.246;2022-07-18T06:33:18;3.60;;;2.10;;
1753;SDS011;58380;48.312;9.246;2022-07-18T06:35:48;5.70;;;2.30;;
1753;SDS011;58380;48.312;9.246;2022-07-18T06:38:17;3.15;;;2.00;;
1753;SDS011;58380;48.312;9.246;2022-07-18T06:40:45;3.78;;;2.08;;
1753;SDS011;58380;48.312;9.246;2022-07-18T06:43:14;4.40;;;1.98;;
1753;SDS011;58380;48.312;9.246;2022-07-18T06:45:44;2.80;;;1.92;;
1753;SDS011;58380;48.312;9.246;2022-07-18T06:48:13;2.80;;;1.65;;
1753;SDS011;58380;48.312;9.246;2022-07-18T06:50:44;2.88;;;2.08;;
1753;SDS011;58380;48.312;9.246;2022-07-18T06:53:13;4.40;;;1.80;;
1753;SDS011;58380;48.312;9.246;2022-07-18T06:55:41;4.65;;;1.80;;
1753;SDS011;58380;48.312;9.246;2022-07-18T06:58:10;6.60;;;2.22;;
1753;SDS011;58380;48.312;9.246;2022-07-18T07:00:39;3.72;;;1.80;;
1753;SDS011;58380;48.312;9.246;2022-07-18T07:03:07;4.07;;;1.92;;
1753;SDS011;58380;48.312;9.246;2022-07-18T07:05:36;3.45;;;1.75;;
1753;SDS011;58380;48.312;9.246;2022-07-18T07:08:07;2.22;;;1.45;;
1753;SDS011;58380;48.312;9.246;2022-07-18T07:10:37;5.20;;;1.48;;
1753;SDS011;58380;48.312;9.246;2022-07-18T07:13:06;3.67;;;1.70;;
1753;SDS011;58380;48.312;9.246;2022-07-18T07:15:35;3.33;;;1.80;;
1753;SDS011;58380;48.312;9.246;2022-07-18T07:18:05;7.82;;;2.30;;
1753;SDS011;58380;48.312;9.246;2022-07-18T07:20:34;4.28;;;1.80;;
1753;SDS011;58380;48.312;9.246;2022-07-18T07:23:02;4.88;;;1.60;;
1753;SDS011;58380;48.312;9.246;2022-07-18T07:25:35;4.65;;;1.80;;
1753;SDS011;58380;48.312;9.246;2022-07-18T07:28:05;4.70;;;1.85;;
1753;SDS011;58380;48.312;9.246;2022-07-18T07:30:34;7.25;;;1.90;;
1753;SDS011;58380;48.312;9.246;2022-07-18T07:33:03;5.28;;;1.80;;
1753;SDS011;58380;48.312;9.246;2022-07-18T07:35:35;3.67;;;1.80;;
1753;SDS011;58380;48.312;9.246;2022-07-18T07:38:04;1.73;;;1.10;;
1753;SDS011;58380;48.312;9.246;2022-07-18T07:40:35;4.18;;;1.55;;
1753;SDS011;58380;48.312;9.246;2022-07-18T07:43:04;2.35;;;1.50;;
1753;SDS011;58380;48.312;9.246;2022-07-18T07:45:35;3.58;;;1.50;;
1753;SDS011;58380;48.312;9.246;2022-07-18T07:48:05;7.75;;;1.30;;
1753;SDS011;58380;48.312;9.246;2022-07-18T07:50:34;3.40;;;1.30;;
1753;SDS011;58380;48.312;9.246;2022-07-18T07:53:06;4.43;;;1.40;;
1753;SDS011;58380;48.312;9.246;2022-07-18T07:55:38;2.97;;;1.30;;
1753;SDS011;58380;48.312;9.246;2022-07-18T07:58:07;3.50;;;1.20;;
1753;SDS011;58380;48.312;9.246;2022-07-18T08:00:35;2.03;;;1.17;;
1753;SDS011;58380;48.312;9.246;2022-07-18T08:03:04;1.48;;;1.10;;
1753;SDS011;58380;48.312;9.246;2022-07-18T08:05:36;2.20;;;1.30;;
1753;SDS011;58380;48.312;9.246;2022-07-18T08:08:12;1.48;;;1.02;;
1753;SDS011;58380;48.312;9.246;2022-07-18T08:10:44;3.63;;;1.35;;
1753;SDS011;58380;48.312;9.246;2022-07-18T08:13:14;6.50;;;1.13;;
1753;SDS011;58380;48.312;9.246;2022-07-18T08:15:43;4.22;;;1.23;;
1753;SDS011;58380;48.312;9.246;2022-07-18T08:18:12;3.83;;;1.05;;
1753;SDS011;58380;48.312;9.246;2022-07-18T08:20:40;2.30;;;1.27;;
1753;SDS011;58380;48.312;9.246;2022-07-18T08:23:10;4.63;;;1.33;;
1753;SDS011;58380;48.312;9.246;2022-07-18T08:25:40;3.25;;;1.20;;
1753;SDS011;58380;48.312;9.246;2022-07-18T08:28:13;2.65;;;1.20;;
1753;SDS011;58380;48.312;9.246;2022-07-18T08:30:42;2.05;;;1.23;;
1753;SDS011;58380;48.312;9.246;2022-07-18T08:33:11;2.58;;;1.40;;
1753;SDS011;58380;48.312;9.246;2022-07-18T08:35:39;3.28;;;1.30;;
1753;SDS011;58380;48.312;9.246;2022-07-18T08:38:08;2.28;;;1.10;;
1753;SDS011;58380;48.312;9.246;2022-07-18T08:40:37;1.92;;;1.30;;
1753;SDS011;58380;48.312;9.246;2022-07-18T08:43:09;1.33;;;1.10;;
1753;SDS011;58380;48.312;9.246;2022-07-18T08:45:38;2.67;;;1.42;;
1753;SDS011;58380;48.312;9.246;2022-07-18T08:48:12;4.57;;;1.20;;
1753;SDS011;58380;48.312;9.246;2022-07-18T08:50:42;3.30;;;1.13;;
1753;SDS011;58380;48.312;9.246;2022-07-18T08:53:12;2.78;;;1.10;;
1753;SDS011;58380;48.312;9.246;2022-07-18T08:55:42;2.40;;;1.30;;
1753;SDS011;58380;48.312;9.246;2022-07-18T08:58:14;2.03;;;1.30;;
1753;SDS011;58380;48.312;9.246;2022-07-18T09:00:44;1.35;;;1.10;;
1753;SDS011;58380;48.312;9.246;2022-07-18T09:03:13;2.67;;;1.38;;
1753;SDS011;58380;48.312;9.246;2022-07-18T09:05:42;3.40;;;1.10;;
1753;SDS011;58380;48.312;9.246;2022-07-18T09:08:11;1.50;;;1.10;;
1753;SDS011;58380;48.312;9.246;2022-07-18T09:10:48;1.80;;;1.20;;
1753;SDS011;58380;48.312;9.246;2022-07-18T09:13:21;2.03;;;1.30;;
1753;SDS011;58380;48.312;9.246;2022-07-18T09:15:59;2.55;;;1.38;;
1753;SDS011;58380;48.312;9.246;2022-07-18T09:18:32;2.33;;;1.38;;
1753;SDS011;58380;48.312;9.246;2022-07-18T09:21:03;5.13;;;1.30;;
1753;SDS011;58380;48.312;9.246;2022-07-18T09:23:34;2.55;;;1.27;;
1753;SDS011;58380;48.312;9.246;2022-07-18T09:26:07;1.52;;;1.13;;
1753;SDS011;58380;48.312;9.246;2022-07-18T09:28:48;7.65;;;1.10;;
1753;SDS011;58380;48.312;9.246;2022-07-18T09:31:18;2.00;;;1.10;;
1753;SDS011;58380;48.312;9.246;2022-07-18T09:33:52;3.47;;;1.08;;
1753;SDS011;58380;48.312;9.246;2022-07-18T09:36:22;3.08;;;1.20;;
1753;SDS011;58380;48.312;9.246;2022-07-18T09:38:51;1.52;;;1.00;;
1753;SDS011;58380;48.312;9.246;2022-07-18T09:41:21;3.60;;;1.13;;
1753;SDS011;58380;48.312;9.246;2022-07-18T09:43:54;2.08;;;0.90;;
1753;SDS011;58380;48.312;9.246;2022-07-18T09:46:22;2.15;;;1.02;;
1753;SDS011;58380;48.312;9.246;2022-07-18T09:54:34;1.75;;;0.90;;
1753;SDS011;58380;48.312;9.246;2022-07-18T09:57:07;2.40;;;1.00;;
1753;SDS011;58380;48.312;9.246;2022-07-18T09:59:38;4.95;;;1.02;;
1753;SDS011;58380;48.312;9.246;2022-07-18T10:02:07;1.90;;;1.20;;
1753;SDS011;58380;48.312;9.246;2022-07-18T10:04:36;2.38;;;1.20;;
1753;SDS011;58380;48.312;9.246;2022-07-18T10:07:07;1.83;;;1.05;;
1753;SDS011;58380;48.312;9.246;2022-07-18T10:09:37;0.98;;;0.88;;
1753;SDS011;58380;48.312;9.246;2022-07-18T10:12:09;1.80;;;1.02;;
1753;SDS011;58380;48.312;9.246;2022-07-18T10:14:41;1.90;;;1.10;;
1753;SDS011;58380;48.312;9.246;2022-07-18T10:17:11;2.60;;;1.20;;
1753;SDS011;58380;48.312;9.246;2022-07-18T10:19:41;2.60;;;0.98;;
1753;SDS011;58380;48.312;9.246;2022-07-18T10:22:09;1.65;;;1.13;;
1753;SDS011;58380;48.312;9.246;2022-07-18T10:24:39;3.33;;;1.10;;
1753;SDS011;58380;48.312;9.246;2022-07-18T10:27:13;1.48;;;1.00;;
1753;SDS011;58380;48.312;9.246;2022-07-18T10:32:40;2.92;;;1.20;;
1753;SDS011;58380;48.312;9.246;2022-07-18T10:35:09;1.73;;;1.00;;
1753;SDS011;58380;48.312;9.246;2022-07-18T10:37:38;3.15;;;1.23;;
1753;SDS011;58380;48.312;9.246;2022-07-18T10:46:04;2.17;;;1.17;;
1753;SDS011;58380;48.312;9.246;2022-07-18T10:48:47;4.43;;;1.05;;
1753;SDS011;58380;48.312;9.246;2022-07-18T10:51:29;1.98;;;1.10;;
1753;SDS011;58380;48.312;9.246;2022-07-18T10:54:09;1.73;;;1.00;;
1753;SDS011;58380;48.312;9.246;2022-07-18T10:59:35;1.73;;;1.05;;
1753;SDS011;58380;48.312;9.246;2022-07-18T11:02:08;2.63;;;1.10;;
1753;SDS011;58380;48.312;9.246;2022-07-18T11:04:38;2.13;;;1.00;;
1753;SDS011;58380;48.312;9.246;2022-07-18T11:07:12;1.20;;;1.02;;
1753;SDS011;58380;48.312;9.246;2022-07-18T11:09:45;1.42;;;1.00;;
1753;SDS011;58380;48.312;9.246;2022-07-18T11:12:22;1.98;;;1.10;;
1753;SDS011;58380;48.312;9.246;2022-07-18T11:14:58;2.25;;;1.17;;
1753;SDS011;58380;48.312;9.246;2022-07-18T11:20:39;1.48;;;0.98;;
1753;SDS011;58380;48.312;9.246;2022-07-18T11:23:14;1.52;;;1.00;;
1753;SDS011;58380;48.312;9.246;2022-07-18T11:25:46;2.88;;;1.20;;
1753;SDS011;58380;48.312;9.246;2022-07-18T11:28:16;1.60;;;1.10;;
1753;SDS011;58380;48.312;9.246;2022-07-18T11:30:46;1.50;;;1.10;;
1753;SDS011;58380;48.312;9.246;2022-07-18T11:33:31;2.35;;;0.90;;
1753;SDS011;58380;48.312;9.246;2022-07-18T11:36:06;1.45;;;1.17;;
1753;SDS011;58380;48.312;9.246;2022-07-18T11:38:38;2.13;;;1.15;;
1753;SDS011;58380;48.312;9.246;2022-07-18T11:41:13;1.88;;;1.08;;
1753;SDS011;58380;48.312;9.246;2022-07-18T11:43:43;4.20;;;1.10;;
1753;SDS011;58380;48.312;9.246;2022-07-18T11:46:14;2.20;;;1.17;;
1753;SDS011;58380;48.312;9.246;2022-07-18T11:48:48;2.47;;;1.08;;
1753;SDS011;58380;48.312;9.246;2022-07-18T11:51:32;4.50;;;1.55;;
1753;SDS011;58380;48.312;9.246;2022-07-18T11:54:03;1.50;;;1.00;;
1753;SDS011;58380;48.312;9.246;2022-07-18T11:56:33;1.80;;;1.10;;
1753;SDS011;58380;48.312;9.246;2022-07-18T11:59:15;1.60;;;1.10;;
1753;SDS011;58380;48.312;9.246;2022-07-18T12:01:44;1.98;;;1.00;;
1753;SDS011;58380;48.312;9.246;2022-07-18T12:04:20;2.40;;;1.00;;
1753;SDS011;58380;48.312;9.246;2022-07-18T12:09:46;2.88;;;1.13;;
1753;SDS011;58380;48.312;9.246;2022-07-18T12:12:17;1.50;;;1.05;;
1753;SDS011;58380;48.312;9.246;2022-07-18T12:14:56;2.20;;;1.00;;
1753;SDS011;58380;48.312;9.246;2022-07-18T12:17:27;2.03;;;1.20;;
1753;SDS011;58380;48.312;9.246;2022-07-18T12:20:13;1.30;;;1.08;;
1753;SDS011;58380;48.312;9.246;2022-07-18T12:28:26;2.05;;;1.17;;
1753;SDS011;58380;48.312;9.246;2022-07-18T12:30:56;2.28;;;1.20;;
1753;SDS011;58380;48.312;9.246;2022-07-18T12:33:25;1.55;;;1.02;;
1753;SDS011;58380;48.312;9.246;2022-07-18T12:35:57;2.92;;;1.38;;
1753;SDS011;58380;48.312;9.246;2022-07-18T12:38:27;2.63;;;1.20;;
1753;SDS011;58380;48.312;9.246;2022-07-18T12:40:57;2.42;;;1.25;;
1753;SDS011;58380;48.312;9.246;2022-07-18T12:43:29;2.10;;;1.25;;
1753;SDS011;58380;48.312;9.246;2022-07-18T12:46:01;2.85;;;1.13;;
1753;SDS011;58380;48.312;9.246;2022-07-18T12:48:33;1.70;;;1.13;;
1753;SDS011;58380;48.312;9.246;2022-07-18T12:51:07;1.70;;;1.10;;
1753;SDS011;58380;48.312;9.246;2022-07-18T12:53:37;3.00;;;1.20;;
1753;SDS011;58380;48.312;9.246;2022-07-18T12:56:08;1.25;;;1.00;;
1753;SDS011;58380;48.312;9.246;2022-07-18T12:58:37;2.03;;;1.20;;
1753;SDS011;58380;48.312;9.246;2022-07-18T13:01:05;2.65;;;1.17;;
1753;SDS011;58380;48.312;9.246;2022-07-18T13:03:34;2.10;;;1.25;;
1753;SDS011;58380;48.312;9.246;2022-07-18T13:06:08;1.52;;;1.00;;
1753;SDS011;58380;48.312;9.246;2022-07-18T13:08:36;2.80;;;1.38;;
1753;SDS011;58380;48.312;9.246;2022-07-18T13:11:05;2.83;;;1.10;;
1753;SDS011;58380;48.312;9.246;2022-07-18T13:13:33;2.28;;;1.20;;
1753;SDS011;58380;48.312;9.246;2022-07-18T13:16:02;2.75;;;1.30;;
1753;SDS011;58380;48.312;9.246;2022-07-18T13:18:31;3.45;;;1.20;;
1753;SDS011;58380;48.312;9.246;2022-07-18T13:21:00;3.85;;;1.30;;
1753;SDS011;58380;48.312;9.246;2022-07-18T13:23:31;2.67;;;1.13;;
1753;SDS011;58380;48.312;9.246;2022-07-18T13:25:59;2.70;;;1.20;;
1753;SDS011;58380;48.312;9.246;2022-07-18T13:28:28;2.17;;;1.08;;
1753;SDS011;58380;48.312;9.246;2022-07-18T13:30:56;1.75;;;1.13;;
1753;SDS011;58380;48.312;9.246;2022-07-18T13:33:26;1.63;;;1.17;;
1753;SDS011;58380;48.312;9.246;2022-07-18T13:35:55;1.98;;;1.23;;
1753;SDS011;58380;48.312;9.246;2022-07-18T13:38:23;2.33;;;1.30;;
1753;SDS011;58380;48.312;9.246;2022-07-18T13:40:54;4.38;;;1.50;;
1753;SDS011;58380;48.312;9.246;2022-07-18T13:43:23;2.10;;;1.38;;
1753;SDS011;58380;48.312;9.246;2022-07-18T13:45:51;3.97;;;1.45;;
1753;SDS011;58380;48.312;9.246;2022-07-18T13:48:20;1.55;;;1.20;;
1753;SDS011;58380;48.312;9.246;2022-07-18T13:50:48;2.25;;;1.10;;
1753;SDS011;58380;48.312;9.246;2022-07-18T13:53:17;1.90;;;1.10;;
1753;SDS011;58380;48.312;9.246;2022-07-18T13:55:45;2.85;;;1.20;;
1753;SDS011;58380;48.312;9.246;2022-07-18T13:58:16;4.25;;;1.20;;
1753;SDS011;58380;48.312;9.246;2022-07-18T14:00:45;1.88;;;1.08;;
1753;SDS011;58380;48.312;9.246;2022-07-18T14:03:14;3.72;;;1.27;;
1753;SDS011;58380;48.312;9.246;2022-07-18T14:05:43;3.08;;;1.20;;
1753;SDS011;58380;48.312;9.246;2022-07-18T14:08:11;2.70;;;1.13;;
1753;SDS011;58380;48.312;9.246;2022-07-18T14:10:40;2.67;;;1.38;;
1753;SDS011;58380;48.312;9.246;2022-07-18T14:13:09;3.13;;;1.23;;
1753;SDS011;58380;48.312;9.246;2022-07-18T14:15:40;2.67;;;1.30;;
1753;SDS011;58380;48.312;9.246;2022-07-18T14:18:08;2.03;;;1.15;;
1753;SDS011;58380;48.312;9.246;2022-07-18T14:20:37;2.70;;;1.23;;
1753;SDS011;58380;48.312;9.246;2022-07-18T14:23:05;3.08;;;1.30;;
1753;SDS011;58380;48.312;9.246;2022-07-18T14:25:34;2.33;;;1.20;;
1753;SDS011;58380;48.312;9.246;2022-07-18T14:28:03;3.38;;;1.40;;
1753;SDS011;58380;48.312;9.246;2022-07-18T14:30:32;2.20;;;1.45;;
1753;SDS011;58380;48.312;9.246;2022-07-18T14:33:03;2.60;;;1.50;;
1753;SDS011;58380;48.312;9.246;2022-07-18T14:35:32;1.70;;;1.13;;
1753;SDS011;58380;48.312;9.246;2022-07-18T14:38:00;2.20;;;1.23;;
1753;SDS011;58380;48.312;9.246;2022-07-18T14:40:29;1.80;;;1.27;;
1753;SDS011;58380;48.312;9.246;2022-07-18T14:42:57;1.80;;;1.30;;
1753;SDS011;58380;48.312;9.246;2022-07-18T14:45:26;6.00;;;1.70;;
1753;SDS011;58380;48.312;9.246;2022-07-18T14:47:54;2.10;;;1.25;;
1753;SDS011;58380;48.312;9.246;2022-07-18T14:50:26;2.10;;;1.55;;
1753;SDS011;58380;48.312;9.246;2022-07-18T14:52:54;3.42;;;1.38;;
1753;SDS011;58380;48.312;9.246;2022-07-18T14:55:23;1.70;;;1.30;;
1753;SDS011;58380;48.312;9.246;2022-07-18T14:57:51;2.75;;;1.40;;
1753;SDS011;58380;48.312;9.246;2022-07-18T15:00:20;2.05;;;1.35;;
1753;SDS011;58380;48.312;9.246;2022-07-18T15:02:48;3.25;;;1.50;;
1753;SDS011;58380;48.312;9.246;2022-07-18T15:05:17;2.38;;;1.45;;
1753;SDS011;58380;48.312;9.246;2022-07-18T15:07:48;4.25;;;1.58;;
1753;SDS011;58380;48.312;9.246;2022-07-18T15:10:17;1.60;;;1.20;;
1753;SDS011;58380;48.312;9.246;2022-07-18T15:12:45;2.08;;;1.45;;
1753;SDS011;58380;48.312;9.246;2022-07-18T15:15:14;3.42;;;1.33;;
1753;SDS011;58380;48.312;9.246;2022-07-18T15:17:42;3.45;;;1.60;;
1753;SDS011;58380;48.312;9.246;2022-07-18T15:20:11;3.40;;;1.77;;
1753;SDS011;58380;48.312;9.246;2022-07-18T15:22:41;3.25;;;1.50;;
1753;SDS011;58380;48.312;9.246;2022-07-18T15:25:12;1.85;;;1.30;;
1753;SDS011;58380;48.312;9.246;2022-07-18T15:27:40;3.30;;;1.60;;
1753;SDS011;58380;48.312;9.246;2022-07-18T15:30:09;2.83;;;1.40;;
1753;SDS011;58380;48.312;9.246;2022-07-18T15:32:38;5.18;;;1.38;;
1753;SDS011;58380;48.312;9.246;2022-07-18T15:35:06;1.95;;;1.40;;
1753;SDS011;58380;48.312;9.246;2022-07-18T15:37:35;2.90;;;1.70;;
1753;SDS011;58380;48.312;9.246;2022-07-18T15:40:04;3.15;;;1.60;;
1753;SDS011;58380;48.312;9.246;2022-07-18T15:42:37;3.72;;;1.52;;
1753;SDS011;58380;48.312;9.246;2022-07-18T15:45:06;4.63;;;1.60;;
1753;SDS011;58380;48.312;9.246;2022-07-18T15:47:36;4.18;;;1.52;;
1753;SDS011;58380;48.312;9.246;2022-07-18T15:50:04;2.10;;;1.45;;
1753;SDS011;58380;48.312;9.246;2022-07-18T15:52:34;4.40;;;1.65;;
1753;SDS011;58380;48.312;9.246;2022-07-18T15:55:03;3.42;;;1.58;;
1753;SDS011;58380;48.312;9.246;2022-07-18T15:57:33;2.78;;;1.65;;
1753;SDS011;58380;48.312;9.246;2022-07-18T16:00:05;4.05;;;1.52;;
1753;SDS011;58380;48.312;9.246;2022-07-18T16:02:35;2.83;;;1.60;;
1753;SDS011;58380;48.312;9.246;2022-07-18T16:05:05;3.22;;;1.40;;
1753;SDS011;58380;48.312;9.246;2022-07-18T16:07:34;3.03;;;1.60;;
1753;SDS011;58380;48.312;9.246;2022-07-18T16:10:03;4.75;;;1.52;;
1753;SDS011;58380;48.312;9.246;2022-07-18T16:12:33;3.45;;;1.45;;
1753;SDS011;58380;48.312;9.246;2022-07-18T16:15:05;3.67;;;1.73;;
1753;SDS011;58380;48.312;9.246;2022-07-18T16:17:34;6.68;;;1.45;;
1753;SDS011;58380;48.312;9.246;2022-07-18T16:20:03;3.65;;;1.63;;
1753;SDS011;58380;48.312;9.246;2022-07-18T16:22:33;2.72;;;1.45;;
1753;SDS011;58380;48.312;9.246;2022-07-18T16:25:02;4.20;;;1.45;;
1753;SDS011;58380;48.312;9.246;2022-07-18T16:27:31;3.42;;;1.50;;
1753;SDS011;58380;48.312;9.246;2022-07-18T16:30:00;5.88;;;1.65;;
1753;SDS011;58380;48.312;9.246;2022-07-18T16:32:31;2.58;;;1.20;;
1753;SDS011;58380;48.312;9.246;2022-07-18T16:35:00;2.20;;;1.50;;
1753;SDS011;58380;48.312;9.246;2022-07-18T16:37:30;3.10;;;1.42;;
1753;SDS011;58380;48.312;9.246;2022-07-18T16:39:59;3.08;;;1.48;;
1753;SDS011;58380;48.312;9.246;2022-07-18T16:42:28;3.15;;;1.33;;
1753;SDS011;58380;48.312;9.246;2022-07-18T16:44:57;4.03;;;1.70;;
1753;SDS011;58380;48.312;9.246;2022-07-18T16:47:27;4.45;;;1.67;;
1753;SDS011;58380;48.312;9.246;2022-07-18T16:49:59;3.38;;;1.40;;
1753;SDS011;58380;48.312;9.246;2022-07-18T16:52:28;3.22;;;1.67;;
1753;SDS011;58380;48.312;9.246;2022-07-18T16:54:57;4.72;;;1.45;;
1753;SDS011;58380;48.312;9.246;2022-07-18T16:57:27;4.68;;;1.45;;
1753;SDS011;58380;48.312;9.246;2022-07-18T16:59:56;3.38;;;1.63;;
1753;SDS011;58380;48.312;9.246;2022-07-18T17:02:25;3.17;;;1.42;;
1753;SDS011;58380;48.312;9.246;2022-07-18T17:04:56;2.72;;;1.40;;
1753;SDS011;58380;48.312;9.246;2022-07-18T17:07:28;3.75;;;1.42;;
1753;SDS011;58380;48.312;9.246;2022-07-18T17:09:57;2.78;;;1.70;;
1753;SDS011;58380;48.312;9.246;2022-07-18T17:12:27;2.47;;;1.50;;
1753;SDS011;58380;48.312;9.246;2022-07-18T17:14:56;2.83;;;1.50;;
1753;SDS011;58380;48.312;9.246;2022-07-18T17:17:25;2.63;;;1.30;;
1753;SDS011;58380;48.312;9.246;2022-07-18T17:19:55;2.20;;;1.58;;
1753;SDS011;58380;48.312;9.246;2022-07-18T17:22:26;7.60;;;1.45;;
1753;SDS011;58380;48.312;9.246;2022-07-18T17:24:58;3.38;;;1.50;;
1753;SDS011;58380;48.312;9.246;2022-07-18T17:27:30;2.47;;;1.30;;
1753;SDS011;58380;48.312;9.246;2022-07-18T17:29:59;2.72;;;1.23;;
1753;SDS011;58380;48.312;9.246;2022-07-18T17:32:28;2.22;;;1.40;;
1753;SDS011;58380;48.312;9.246;2022-07-18T17:34:58;4.00;;;1.80;;
1753;SDS011;58380;48.312;9.246;2022-07-18T17:37:29;2.55;;;1.50;;
1753;SDS011;58380;48.312;9.246;2022-07-18T17:39:59;4.22;;;1.40;;
1753;SDS011;58380;48.312;9.246;2022-07-18T17:42:29;3.40;;;1.40;;
1753;SDS011;58380;48.312;9.246;2022-07-18T17:44:58;6.90;;;1.67;;
1753;SDS011;58380;48.312;9.246;2022-07-18T17:47:28;5.05;;;1.30;;
1753;SDS011;58380;48.312;9.246;2022-07-18T17:50:03;4.85;;;1.58;;
1753;SDS011;58380;48.312;9.246;2022-07-18T17:52:37;3.83;;;1.40;;
1753;SDS011;58380;48.312;9.246;2022-07-18T17:55:07;3.17;;;1.52;;
1753;SDS011;58380;48.312;9.246;2022-07-18T17:57:36;3.88;;;1.33;;
1753;SDS011;58380;48.312;9.246;2022-07-18T18:00:06;2.88;;;1.50;;
1753;SDS011;58380;48.312;9.246;2022-07-18T18:02:37;3.88;;;1.10;;
1753;SDS011;58380;48.312;9.246;2022-07-18T18:05:06;3.80;;;1.25;;
1753;SDS011;58380;48.312;9.246;2022-07-18T18:07:39;2.78;;;1.35;;
1753;SDS011;58380;48.312;9.246;2022-07-18T18:10:09;1.90;;;1.35;;
1753;SDS011;58380;48.312;9.246;2022-07-18T18:12:38;1.90;;;1.45;;
1753;SDS011;58380;48.312;9.246;2022-07-18T18:15:07;2.67;;;1.60;;
1753;SDS011;58380;48.312;9.246;2022-07-18T18:17:37;3.53;;;1.52;;
1753;SDS011;58380;48.312;9.246;2022-07-18T18:20:06;3.88;;;1.80;;
1753;SDS011;58380;48.312;9.246;2022-07-18T18:22:39;3.42;;;1.52;;
1753;SDS011;58380;48.312;9.246;2022-07-18T18:25:08;2.15;;;1.20;;
1753;SDS011;58380;48.312;9.246;2022-07-18T18:27:37;3.70;;;1.55;;
1753;SDS011;58380;48.312;9.246;2022-07-18T18:30:07;2.15;;;1.30;;
1753;SDS011;58380;48.312;9.246;2022-07-18T18:32:39;9.13;;;1.52;;
1753;SDS011;58380;48.312;9.246;2022-07-18T18:35:09;3.45;;;1.58;;
1753;SDS011;58380;48.312;9.246;2022-07-18T18:37:41;3.03;;;1.35;;
1753;SDS011;58380;48.312;9.246;2022-07-18T18:40:10;1.98;;;1.42;;
1753;SDS011;58380;48.312;9.246;2022-07-18T18:42:39;2.30;;;1.30;;
1753;SDS011;58380;48.312;9.246;2022-07-18T18:45:08;2.22;;;1.23;;
1753;SDS011;58380;48.312;9.246;2022-07-18T18:47:37;2.78;;;1.33;;
1753;SDS011;58380;48.312;9.246;2022-07-18T18:50:07;1.52;;;1.10;;
1753;SDS011;58380;48.312;9.246;2022-07-18T18:52:38;3.40;;;1.50;;
1753;SDS011;58380;48.312;9.246;2022-07-18T18:55:10;4.35;;;1.30;;
1753;SDS011;58380;48.312;9.246;2022-07-18T18:57:42;2.17;;;1.30;;
1753;SDS011;58380;48.312;9.246;2022-07-18T19:00:12;4.00;;;1.38;;
1753;SDS011;58380;48.312;9.246;2022-07-18T19:02:46;2.92;;;1.23;;
1753;SDS011;58380;48.312;9.246;2022-07-18T19:05:18;4.88;;;1.58;;
1753;SDS011;58380;48.312;9.246;2022-07-18T19:07:51;3.78;;;1.60;;
1753;SDS011;58380;48.312;9.246;2022-07-18T19:10:20;5.13;;;1.65;;
1753;SDS011;58380;48.312;9.246;2022-07-18T19:12:48;3.88;;;1.40;;
1753;SDS011;58380;48.312;9.246;2022-07-18T19:15:18;2.65;;;1.60;;
1753;SDS011;58380;48.312;9.246;2022-07-18T19:17:47;2.20;;;1.30;;
1753;SDS011;58380;48.312;9.246;2022-07-18T19:20:15;2.42;;;1.60;;
1753;SDS011;58380;48.312;9.246;2022-07-18T19:22:44;2.85;;;1.52;;
1753;SDS011;58380;48.312;9.246;2022-07-18T19:25:15;2.88;;;1.52;;
1753;SDS011;58380;48.312;9.246;2022-07-18T19:27:44;3.25;;;1.73;;
1753;SDS011;58380;48.312;9.246;2022-07-18T19:30:13;2.80;;;1.67;;
1753;SDS011;58380;48.312;9.246;2022-07-18T19:32:42;5.07;;;1.63;;
1753;SDS011;58380;48.312;9.246;2022-07-18T19:35:10;2.72;;;1.50;;
1753;SDS011;58380;48.312;9.246;2022-07-18T19:37:39;4.80;;;1.67;;
1753;SDS011;58380;48.312;9.246;2022-07-18T19:40:08;3.33;;;1.48;;
1753;SDS011;58380;48.312;9.246;2022-07-18T19:42:42;5.72;;;1.92;;
1753;SDS011;58380;48.312;9.246;2022-07-18T19:45:10;3.97;;;1.58;;
1753;SDS011;58380;48.312;9.246;2022-07-18T19:47:40;3.58;;;1.58;;
1753;SDS011;58380;48.312;9.246;2022-07-18T19:50:09;3.17;;;1.45;;
1753;SDS011;58380;48.312;9.246;2022-07-18T19:52:38;6.18;;;1.80;;
1753;SDS011;58380;48.312;9.246;2022-07-18T19:55:09;2.50;;;1.60;;
1753;SDS011;58380;48.312;9.246;2022-07-18T19:57:37;3.47;;;1.65;;
1753;SDS011;58380;48.312;9.246;2022-07-18T20:00:10;4.57;;;1.65;;
1753;SDS011;58380;48.312;9.246;2022-07-18T20:05:11;6.38;;;1.80;;
1753;SDS011;58380;48.312;9.246;2022-07-18T20:07:40;4.03;;;1.58;;
1753;SDS011;58380;48.312;9.246;2022-07-18T20:10:09;3.15;;;1.73;;
1753;SDS011;58380;48.312;9.246;2022-07-18T20:12:39;3.63;;;1.38;;
1753;SDS011;58380;48.312;9.246;2022-07-18T20:15:10;6.10;;;1.80;;
1753;SDS011;58380;48.312;9.246;2022-07-18T20:17:39;3.10;;;1.75;;
1753;SDS011;58380;48.312;9.246;2022-07-18T20:20:08;5.68;;;2.03;;
1753;SDS011;58380;48.312;9.246;2022-07-18T20:22:37;3.53;;;1.70;;
1753;SDS011;58380;48.312;9.246;2022-07-18T20:25:06;5.55;;;1.75;;
1753;SDS011;58380;48.312;9.246;2022-07-18T20:27:36;3.63;;;1.80;;
1753;SDS011;58380;48.312;9.246;2022-07-18T20:30:05;5.95;;;1.88;;
1753;SDS011;58380;48.312;9.246;2022-07-18T20:32:39;4.38;;;1.60;;
1753;SDS011;58380;48.312;9.246;2022-07-18T20:35:08;3.63;;;1.80;;
1753;SDS011;58380;48.312;9.246;2022-07-18T20:37:38;6.30;;;2.00;;
1753;SDS011;58380;48.312;9.246;2022-07-18T20:40:08;4.53;;;1.80;;
1753;SDS011;58380;48.312;9.246;2022-07-18T20:42:39;3.17;;;1.80;;
1753;SDS011;58380;48.312;9.246;2022-07-18T20:45:11;2.97;;;1.80;;
1753;SDS011;58380;48.312;9.246;2022-07-18T20:47:40;3.92;;;1.73;;
1753;SDS011;58380;48.312;9.246;2022-07-18T20:50:09;6.05;;;2.10;;
1753;SDS011;58380;48.312;9.246;2022-07-18T20:52:37;5.53;;;1.70;;
1753;SDS011;58380;48.312;9.246;2022-07-18T20:55:06;7.18;;;2.15;;
1753;SDS011;58380;48.312;9.246;2022-07-18T20:57:35;9.43;;;2.20;;
1753;SDS011;58380;48.312;9.246;2022-07-18T21:00:04;4.72;;;2.10;;
1753;SDS011;58380;48.312;9.246;2022-07-18T21:02:38;3.63;;;2.00;;
1753;SDS011;58380;48.312;9.246;2022-07-18T21:05:07;4.53;;;1.95;;
1753;SDS011;58380;48.312;9.246;2022-07-18T21:07:36;6.40;;;1.90;;
1753;SDS011;58380;48.312;9.246;2022-07-18T21:10:05;3.75;;;1.70;;
1753;SDS011;58380;48.312;9.246;2022-07-18T21:12:34;6.57;;;1.92;;
1753;SDS011;58380;48.312;9.246;2022-07-18T21:15:03;6.63;;;1.85;;
1753;SDS011;58380;48.312;9.246;2022-07-18T21:17:33;3.88;;;1.90;;
1753;SDS011;58380;48.312;9.246;2022-07-18T21:20:07;4.65;;;1.85;;
1753;SDS011;58380;48.312;9.246;2022-07-18T21:22:38;11.23;;;2.22;;
1753;SDS011;58380;48.312;9.246;2022-07-18T21:25:07;3.97;;;1.50;;
1753;SDS011;58380;48.312;9.246;2022-07-18T21:27:37;3.60;;;1.95;;
1753;SDS011;58380;48.312;9.246;2022-07-18T21:30:06;6.40;;;2.22;;
1753;SDS011;58380;48.312;9.246;2022-07-18T21:32:37;3.35;;;2.08;;
1753;SDS011;58380;48.312;9.246;2022-07-18T21:35:08;9.30;;;2.50;;
1753;SDS011;58380;48.312;9.246;2022-07-18T21:37:38;7.97;;;2.00;;
1753;SDS011;58380;48.312;9.246;2022-07-18T21:40:07;5.60;;;2.08;;
1753;SDS011;58380;48.312;9.246;2022-07-18T21:42:36;6.57;;;1.90;;
1753;SDS011;58380;48.312;9.246;2022-07-18T21:45:06;4.72;;;2.00;;
